Chadstone Weather > Observations for 07/09/20

Select Day:



Observations
Time Temp Hum DP Wind Gust Dir Rain >9am Press
C % C kph kph mm hPa
00:00 13.5 62 6.4 6.4 17.3 NNW 0.0 1031.9
00:10 13.4 63 6.5 9.1 15.8 NNE 0.0 1031.7
00:20 13.4 63 6.5 8.3 14.8 NE 0.0 1031.6
00:30 13.4 62 6.3 11.6 17.3 NE 0.0 1031.5
00:40 13.5 61 6.1 12.5 20.9 NNE 0.0 1031.3
00:50 13.5 61 6.1 12.2 28.1 NNE 0.0 1031.2
01:00 13.4 61 6.0 11.9 19.4 N 0.0 1031.3
01:10 13.4 61 6.0 12.2 18.4 N 0.0 1031.1
01:20 13.2 61 5.8 9.6 18.4 NE 0.0 1031.1
01:30 13.2 61 5.8 8.3 18.4 ENE 0.0 1031.1
01:40 13.1 62 6.0 7.7 11.2 NE 0.0 1031.1
01:50 13.0 62 5.9 6.1 9.7 N 0.0 1030.9
02:00 12.8 62 5.7 5.6 11.2 NNE 0.0 1030.8
02:10 12.7 63 5.8 4.9 11.2 N 0.0 1030.8
02:20 12.7 63 5.8 6.0 9.7 N 0.0 1030.9
02:30 12.7 63 5.8 6.0 9.7 N 0.0 1030.6
02:40 12.7 63 5.8 6.0 9.7 N 0.0 1030.3
02:50 12.7 63 5.8 6.0 9.7 N 0.0 1030.2
03:00 12.7 63 5.8 6.0 9.7 N 0.0 1030.3
03:10 12.7 63 5.8 6.0 9.7 N 0.0 1030.5
03:20 12.7 63 5.8 6.0 9.7 N 0.0 1030.4
03:30 12.7 63 5.8 6.0 9.7 N 0.0 1030.4
03:40 12.7 63 5.8 6.0 9.7 N 0.0 1030.2
03:50 12.7 63 5.8 6.0 9.7 N 0.0 1030.3
04:00 12.7 63 5.8 6.0 9.7 N 0.0 1030.4
04:10 12.7 63 5.8 6.0 9.7 N 0.0 1030.5
04:20 12.7 63 5.8 6.0 9.7 N 0.0 1030.5
04:30 12.7 63 5.8 6.0 9.7 N 0.0 1030.5
04:40 12.2 63 5.4 5.0 8.6 N 0.0 1030.5
04:50 12.1 63 5.3 6.2 13.3 N 0.0 1030.3
05:00 12.1 63 5.3 8.6 11.2 N 0.0 1030.4
05:10 12.1 63 5.3 8.6 11.2 N 0.0 1030.6
05:20 12.1 63 5.3 5.2 9.7 N 0.0 1030.6
05:30 12.1 63 5.3 5.0 7.2 N 0.0 1030.7
05:40 12.1 63 5.3 5.0 7.2 N 0.0 1030.8
05:50 12.1 63 5.3 5.0 7.2 N 0.0 1030.8
06:00 12.1 63 5.3 5.0 7.2 N 0.0 1030.7
06:10 12.1 63 5.3 5.0 7.2 N 0.0 1030.8
06:20 12.1 63 5.3 5.0 7.2 N 0.0 1030.7
06:30 12.1 63 5.3 5.0 7.2 N 0.0 1030.8
06:40 12.1 63 5.3 5.0 7.2 N 0.0 1030.9
06:50 12.1 63 5.3 5.0 7.2 N 0.0 1030.9
07:00 12.1 63 5.3 5.0 7.2 N 0.0 1031.1
07:10 12.1 63 5.3 5.0 7.2 N 0.0 1031.3
07:20 12.1 63 5.3 5.0 7.2 N 0.0 1031.5
07:30 12.1 63 5.3 5.0 7.2 N 0.0 1031.7
07:40 12.1 63 5.3 5.0 7.2 N 0.0 1031.7
07:50 12.1 63 5.3 5.0 7.2 N 0.0 1031.7
08:00 12.1 63 5.3 5.0 7.2 N 0.0 1031.7
08:10 12.1 63 5.3 5.0 7.2 N 0.0 1031.7
08:20 12.1 63 5.3 5.0 7.2 N 0.0 1031.6
08:30 12.1 63 5.3 5.0 7.2 N 0.0 1031.6
08:40 12.1 63 5.3 5.0 7.2 N 0.0 1031.6
08:50 12.1 63 5.3 5.0 7.2 N 0.0 1031.5
09:00 12.1 63 5.3 5.0 7.2 N 0.0 1031.5
09:10 12.1 63 5.3 5.0 7.2 N 0.0 1031.5
09:20 12.1 63 5.3 5.0 7.2 N 0.0 1031.4
09:30 12.1 63 5.3 5.0 7.2 N 0.0 1031.2
09:40 18.0 45 5.9 13.3 29.5 N 0.0 1031.2
09:50 18.2 43 5.4 16.8 29.5 ENE 0.0 1031.1
10:00 18.2 43 5.4 17.3 27.0 ENE 0.0 1031.0
10:10 18.2 43 5.4 17.3 27.0 ENE 0.0 1030.8
10:20 18.2 43 5.4 17.3 27.0 ENE 0.0 1030.8
10:30 19.3 42 6.1 21.2 31.7 NNE 0.0 1030.6
10:40 19.5 42 6.3 23.2 39.2 N 0.0 1030.3
10:50 19.7 42 6.4 24.5 41.8 N 0.0 1030.1
11:00 20.0 42 6.7 20.0 42.8 NNE 0.0 1030.1
11:10 20.2 42 6.9 20.0 41.8 NNW 0.0 1029.8
11:20 20.4 43 7.4 20.1 39.2 NNW 0.0 1029.7
11:30 20.7 42 7.3 21.8 40.3 N 0.0 1029.7
11:40 20.9 43 7.9 17.7 33.1 NE 0.0 1029.3
11:50 21.2 41 7.4 16.4 37.8 N 0.0 1029.3
12:00 21.4 41 7.6 17.6 31.7 N 0.0 1029.0
12:10 21.9 40 7.7 19.2 31.7 NNW 0.0 1029.0
12:20 22.3 40 8.1 19.8 35.6 NNW 0.0 1028.8
12:30 22.6 38 7.6 17.9 34.2 NW 0.0 1028.5
12:40 22.9 38 7.8 18.6 35.6 NNW 0.0 1028.3
12:50 23.2 36 7.3 20.6 43.9 NNW 0.0 1028.6
13:00 23.0 36 7.1 23.0 43.9 NW 0.0 1028.5
13:10 23.0 36 7.1 23.0 40.3 NNW 0.0 1028.5
13:20 23.1 36 7.2 20.8 41.8 NNW 0.0 1028.2
13:30 23.5 37 8.0 14.9 30.6 NNW 0.0 1028.1
13:40 23.3 36 7.4 20.1 36.7 NNE 0.0 1027.9
13:50 23.2 36 7.3 20.8 37.8 NNE 0.0 1027.7
14:00 23.2 35 6.9 27.4 42.8 NW 0.0 1027.7
14:10 23.2 35 6.9 22.6 40.3 NNW 0.0 1027.6
14:20 23.3 35 7.0 22.4 41.8 NW 0.0 1027.6
14:30 23.2 35 6.9 22.0 37.8 N 0.0 1027.5
14:40 23.2 35 6.9 22.6 43.9 N 0.0 1027.0
14:50 23.0 35 6.7 24.0 55.1 N 0.0 1026.6
15:00 23.0 36 7.1 27.1 43.9 N 0.0 1026.3
15:10 22.9 35 6.6 23.9 42.8 N 0.0 1026.5
15:20 22.7 35 6.5 23.6 46.4 N 0.0 1026.3
15:30 22.7 36 6.9 23.3 43.9 N 0.0 1026.3
15:40 22.7 38 7.7 21.9 37.8 NNW 0.0 1026.3
15:50 22.8 38 7.8 15.9 30.6 NNW 0.0 1026.2
16:00 22.5 39 7.9 21.7 35.6 N 0.0 1026.3
16:10 22.2 38 7.2 24.4 43.9 N 0.0 1026.3
16:20 22.2 38 7.2 19.6 33.1 N 0.0 1026.3
16:30 22.1 38 7.1 19.0 35.6 NNW 0.0 1026.2
16:40 22.1 39 7.5 19.7 41.8 NNE 0.0 1026.1
16:50 22.0 41 8.2 20.1 40.3 N 0.0 1026.2
17:00 21.8 43 8.7 19.1 40.3 N 0.0 1026.2
17:10 21.6 45 9.2 16.5 33.1 N 0.0 1026.5
17:20 21.5 46 9.4 22.0 41.8 NNW 0.0 1026.6
17:30 21.3 49 10.2 16.0 34.2 NNW 0.0 1026.6
17:40 21.2 51 10.7 16.6 34.2 N 0.0 1026.9
17:50 21.1 52 10.9 15.3 28.1 N 0.0 1026.9
18:00 21.0 53 11.1 17.3 34.2 N 0.0 1026.8
18:10 20.9 54 11.3 18.4 35.6 NNW 0.0 1026.6
18:20 20.8 55 11.4 16.0 31.7 N 0.0 1026.5
18:30 20.6 56 11.5 12.3 28.1 NNW 0.0 1026.3
18:40 20.5 56 11.4 15.1 29.5 NW 0.0 1026.0
18:50 20.5 57 11.7 18.7 33.1 N 0.0 1025.7
19:00 20.4 59 12.1 22.3 41.8 N 0.0 1025.3
19:10 20.5 60 12.5 25.3 45.4 N 0.0 1025.2
19:20 20.5 60 12.5 22.0 45.4 N 0.0 1025.2
19:30 20.4 60 12.4 20.2 34.2 NE 0.0 1025.2
19:40 20.5 60 12.5 22.0 42.8 NNW 0.0 1025.0
19:50 20.4 59 12.1 21.3 37.8 N 0.0 1025.1
20:00 20.4 59 12.1 24.4 40.3 N 0.0 1025.1
20:10 20.3 59 12.0 23.0 35.6 N 0.0 1025.1
20:20 20.3 59 12.0 20.2 35.6 NNE 0.0 1025.1
20:30 20.3 59 12.0 21.8 49.0 N 0.0 1025.2
20:40 20.4 59 12.1 20.7 43.9 NNE 0.0 1025.6
20:50 20.5 59 12.2 25.4 40.3 N 0.0 1025.8
21:00 20.5 59 12.2 20.6 46.4 NNW 0.0 1025.9
21:10 20.5 60 12.5 20.8 41.8 NNE 0.0 1026.2
21:20 20.5 61 12.7 24.8 52.6 N 0.0 1026.0
21:30 20.5 61 12.7 23.3 46.4 N 0.0 1025.9
21:40 20.4 61 12.6 25.6 43.9 N 0.0 1025.8
21:50 20.5 61 12.7 22.3 42.8 N 0.0 1025.7
22:00 20.5 62 13.0 27.0 52.6 N 0.0 1025.5
22:10 20.4 63 13.1 22.6 45.4 NNW 0.0 1025.7
22:20 20.4 63 13.1 24.7 51.5 N 0.0 1025.8
22:30 20.3 63 13.0 23.8 47.9 NNW 0.0 1025.8
22:40 20.3 64 13.3 23.2 40.3 N 0.0 1025.8
22:50 20.3 64 13.3 21.0 49.0 N 0.0 1025.7
23:00 20.4 64 13.4 24.2 47.9 N 0.0 1025.4
23:10 20.4 65 13.6 25.3 51.5 NNW 0.0 1025.4
23:20 20.5 65 13.7 27.7 50.0 N 0.0 1025.3
23:30 20.4 65 13.6 24.8 46.4 N 0.0 1025.2
23:40 20.5 65 13.7 31.8 60.1 NNW 0.0 1025.0
23:50 20.6 64 13.6 28.3 64.8 N 0.0 1025.0